X  Sluiten METAR luchtvaart weer gegevens      EHAM Amsterdam Airport Schiphol
Temperatuur
4°C Temperatuur
3°C Dauwpunt
93% Vochtigheid



Wind
2 M/S
5 MPH
8 KM/U
4 KTS



350°
N
Huidig weer

Wat bewolking Wat bewolking
Luchtdruk 1020.92 (hPa) - 30.15 (inHg)
Zicht 6.2 (mijl) - 10 (km)
Vliegveld
Vliegveld code EHAM

Locatie : Amsterdam Airport Schiphol
Afstand: 26 (km)

Metar:
EHAM 060325Z 35004KT 320V020 9999 FEW024 BKN044 04/03 Q1021 NOSIG

Tijd: 06-12-2022 04:25 CET